Time;durP1;ratioP1;P1;durP2;ratioP2;P2;SDS_P1;SDS_P2;PMS_P1;PMS_P2;Temp;Humidity;BMP_temperature;BMP_pressure;BME280_temperature;BME280_humidity;BME280_pressure;Samples;Min_cycle;Max_cycle;Signal;HPM_P1;HPM_P2
2023/07/09 00:00:00;;;;;;;3.90;2.90;;;;;;;19.40;43.86;97127.83;108917;1270;24220;-81
2023/07/09 00:02:33;;;;;;;4.20;3.10;;;;;;;19.38;43.83;97130.23;108940;1266;22525;-81
2023/07/09 00:05:05;;;;;;;5.00;2.60;;;;;;;19.39;43.80;97138.90;108943;1274;22543;-81
2023/07/09 00:07:37;;;;;;;4.50;3.00;;;;;;;19.36;43.83;97132.36;108925;1274;22515;-81
2023/07/09 00:10:15;;;;;;;4.00;3.10;;;;;;;19.36;43.77;97133.98;108997;1275;23460;-81
2023/07/09 00:12:47;;;;;;;4.80;2.70;;;;;;;19.35;43.73;97133.00;108961;1267;25365;-81
2023/07/09 00:15:19;;;;;;;4.00;3.10;;;;;;;19.35;43.84;97138.06;108923;1275;22586;-82
2023/07/09 00:17:51;;;;;;;10.50;2.80;;;;;;;19.34;43.81;97135.82;108926;1271;22529;-81
2023/07/09 00:20:23;;;;;;;3.00;2.60;;;;;;;19.33;43.77;97129.73;108929;1274;22563;-81
2023/07/09 00:22:55;;;;;;;6.60;3.10;;;;;;;19.33;43.83;97135.00;108915;1273;23738;-81
2023/07/09 00:25:26;;;;;;;4.30;2.80;;;;;;;19.32;43.85;97133.27;108961;1271;22526;-81
2023/07/09 00:27:58;;;;;;;6.10;3.00;;;;;;;19.32;43.93;97137.33;108889;1275;90271;-81
2023/07/09 00:30:30;;;;;;;6.50;3.10;;;;;;;19.30;43.89;97139.35;108885;1273;22530;-81
2023/07/09 00:33:01;;;;;;;4.20;3.30;;;;;;;19.29;43.95;97141.00;108906;1268;22518;-81
2023/07/09 00:35:33;;;;;;;4.40;3.40;;;;;;;19.27;44.02;97136.36;108929;1275;22518;-81
2023/07/09 00:38:04;;;;;;;4.90;2.60;;;;;;;19.24;44.09;97141.10;108884;1274;24125;-81
2023/07/09 00:40:35;;;;;;;6.60;3.20;;;;;;;19.23;44.12;97137.52;108876;1275;22541;-80
2023/07/09 00:43:16;;;;;;;5.10;2.90;;;;;;;19.23;44.19;97132.75;108971;1274;22580;-81
2023/07/09 00:46:01;;;;;;;4.50;2.90;;;;;;;19.23;44.21;97136.84;109000;1275;22531;-80
2023/07/09 00:48:33;;;;;;;4.80;2.70;;;;;;;19.22;44.21;97129.25;108948;1251;22536;-81
2023/07/09 00:51:13;;;;;;;4.10;3.10;;;;;;;19.21;44.20;97134.97;108976;1274;24245;-81
2023/07/09 00:53:46;;;;;;;3.40;2.60;;;;;;;19.20;44.31;97134.85;108944;1275;22534;-80
2023/07/09 00:56:26;;;;;;;5.20;2.90;;;;;;;19.20;44.34;97131.94;108920;1273;22641;-81
2023/07/09 00:58:57;;;;;;;;;;;;;;;19.19;44.44;97132.84;108923;1275;22637;-81
2023/07/09 01:01:29;;;;;;;4.60;3.00;;;;;;;19.17;44.49;97132.98;108948;1275;24945;-81
2023/07/09 01:04:03;;;;;;;4.80;3.40;;;;;;;19.17;44.53;97126.52;108941;1273;22524;-81
2023/07/09 01:06:42;;;;;;;3.80;2.90;;;;;;;19.16;44.56;97128.48;108911;1274;63390;-81
2023/07/09 01:09:14;;;;;;;6.20;3.60;;;;;;;19.15;44.63;97131.36;108969;1274;22537;-81
2023/07/09 01:11:46;;;;;;;5.40;3.20;;;;;;;19.16;44.74;97130.30;108933;1275;24311;-81
2023/07/09 01:14:21;;;;;;;4.60;3.20;;;;;;;19.14;44.71;97130.10;108915;1274;24239;-81
2023/07/09 01:16:58;;;;;;;4.90;3.20;;;;;;;19.15;44.86;97128.59;108924;1274;26472;-81
2023/07/09 01:19:42;;;;;;;4.10;2.70;;;;;;;19.14;44.80;97127.52;109002;1274;26480;-81
2023/07/09 01:22:15;;;;;;;6.10;3.20;;;;;;;19.12;44.92;97128.06;108984;1267;25404;-81
2023/07/09 01:25:01;;;;;;;4.30;3.00;;;;;;;19.11;45.03;97126.71;108963;1274;22505;-81
2023/07/09 01:27:35;;;;;;;4.50;3.20;;;;;;;19.10;45.16;97125.45;108977;1267;22745;-81
2023/07/09 01:30:11;;;;;;;4.80;3.10;;;;;;;19.09;45.09;97121.41;108933;1274;22523;-81
2023/07/09 01:32:45;;;;;;;5.60;3.40;;;;;;;19.07;45.10;97122.27;108944;1267;22537;-80
2023/07/09 01:35:18;;;;;;;4.50;3.10;;;;;;;19.07;45.11;97118.54;108972;1267;22559;-80
2023/07/09 01:37:50;;;;;;;4.50;3.40;;;;;;;19.06;45.18;97118.98;108964;1274;23175;-81
2023/07/09 01:40:24;;;;;;;4.50;3.20;;;;;;;19.05;45.23;97119.46;108947;1274;22556;-81
2023/07/09 01:42:57;;;;;;;4.60;3.20;;;;;;;19.02;45.26;97119.45;108981;1272;22519;-81
2023/07/09 01:45:29;;;;;;;4.70;3.10;;;;;;;19.01;45.25;97121.00;108950;1274;22516;-81
2023/07/09 01:48:01;;;;;;;4.90;3.50;;;;;;;18.99;45.40;97123.15;108894;1268;26188;-81
2023/07/09 01:50:32;;;;;;;4.00;3.10;;;;;;;18.98;45.40;97121.48;109021;1267;23889;-81
2023/07/09 01:53:04;;;;;;;3.80;3.20;;;;;;;18.97;45.50;97118.36;109074;1273;22539;-81
2023/07/09 01:55:35;;;;;;;3.80;3.10;;;;;;;18.96;45.53;97114.30;109000;1267;22522;-81
2023/07/09 01:58:08;;;;;;;4.60;3.20;;;;;;;18.95;45.66;97113.69;108981;1262;49972;-81
2023/07/09 02:00:41;;;;;;;4.00;3.30;;;;;;;18.93;45.75;97111.30;109077;1267;23204;-81
2023/07/09 02:03:13;;;;;;;4.70;3.30;;;;;;;18.91;45.82;97113.14;109072;1267;22525;-81
2023/07/09 02:05:45;;;;;;;5.80;3.10;;;;;;;18.89;45.89;97114.54;109062;1274;23296;-81
2023/07/09 02:08:16;;;;;;;5.90;3.20;;;;;;;18.88;46.00;97116.35;109035;1274;34478;-81
2023/07/09 02:10:49;;;;;;;5.10;3.40;;;;;;;18.88;45.94;97119.54;109050;1274;25519;-81
2023/07/09 02:13:21;;;;;;;4.50;3.30;;;;;;;18.88;45.99;97117.70;109068;1267;22560;-81
2023/07/09 02:15:52;;;;;;;3.10;2.80;;;;;;;18.87;46.09;97117.90;109087;1274;22864;-80
2023/07/09 02:18:23;;;;;;;4.40;2.90;;;;;;;18.86;46.09;97118.03;109046;1267;22648;-81
2023/07/09 02:20:54;;;;;;;4.80;3.10;;;;;;;18.84;46.24;97122.59;109052;1269;24226;-81
2023/07/09 02:23:29;;;;;;;4.70;3.40;;;;;;;18.83;46.21;97126.23;109064;1272;22518;-81
2023/07/09 02:26:00;;;;;;;5.10;3.20;;;;;;;18.83;46.23;97125.52;109081;1258;22540;-81
2023/07/09 02:28:32;;;;;;;4.10;3.20;;;;;;;18.81;46.29;97125.66;109048;1253;22564;-81
2023/07/09 02:31:03;;;;;;;5.10;3.40;;;;;;;18.81;46.43;97130.02;109111;1267;22677;-80
2023/07/09 02:33:35;;;;;;;6.90;3.50;;;;;;;18.80;46.43;97135.75;109077;1274;22531;-81
2023/07/09 02:36:07;;;;;;;6.00;3.10;;;;;;;18.79;46.52;97135.79;109006;1273;22544;-81
2023/07/09 02:38:38;;;;;;;3.90;3.10;;;;;;;18.76;46.57;97136.74;109034;1268;22517;-81
2023/07/09 02:41:09;;;;;;;5.00;3.10;;;;;;;18.74;46.59;97136.81;109058;1267;22564;-80
2023/07/09 02:43:40;;;;;;;4.90;3.30;;;;;;;18.73;46.61;97137.76;109026;1274;22638;-81
2023/07/09 02:46:12;;;;;;;4.50;2.80;;;;;;;18.72;46.72;97138.80;108990;1274;22674;-81
2023/07/09 02:48:43;;;;;;;3.80;3.20;;;;;;;18.70;46.74;97138.85;109054;1274;24365;-81
2023/07/09 02:51:15;;;;;;;6.00;3.00;;;;;;;18.67;46.82;97140.13;109046;1267;22515;-80
2023/07/09 02:53:46;;;;;;;5.00;2.70;;;;;;;18.63;46.97;97142.45;109010;1270;22629;-81
2023/07/09 02:56:18;;;;;;;4.30;3.20;;;;;;;18.60;47.02;97145.16;109010;1267;25191;-81
2023/07/09 02:58:49;;;;;;;3.60;3.20;;;;;;;18.57;47.08;97143.01;109038;1274;22548;-81
2023/07/09 03:01:21;;;;;;;4.10;3.50;;;;;;;18.54;47.20;97145.63;109064;1267;22552;-81
2023/07/09 03:03:53;;;;;;;4.40;3.10;;;;;;;18.52;47.22;97150.68;109059;1272;22649;-81
2023/07/09 03:06:25;;;;;;;4.60;3.30;;;;;;;18.50;47.35;97150.59;109042;1267;23299;-81
2023/07/09 03:08:56;;;;;;;3.80;3.20;;;;;;;18.46;47.44;97153.06;108972;1275;22520;-81
2023/07/09 03:11:29;;;;;;;5.40;3.20;;;;;;;18.45;47.56;97154.34;109072;1274;24465;-81
2023/07/09 03:14:01;;;;;;;4.60;3.30;;;;;;;18.45;47.59;97152.52;109020;1263;24273;-81
2023/07/09 03:16:34;;;;;;;3.90;3.40;;;;;;;18.46;47.67;97153.02;108910;1274;25140;-82
2023/07/09 03:19:06;;;;;;;4.40;3.40;;;;;;;18.48;47.70;97155.48;108869;1270;22542;-81
2023/07/09 03:21:37;;;;;;;6.70;3.70;;;;;;;18.49;47.87;97153.17;108966;1267;22717;-81
2023/07/09 03:24:10;;;;;;;4.10;3.20;;;;;;;18.52;47.95;97157.77;108943;1274;22527;-81
2023/07/09 03:26:41;;;;;;;4.50;3.50;;;;;;;18.56;47.88;97158.13;108874;1274;31990;-81
2023/07/09 03:29:12;;;;;;;6.60;3.60;;;;;;;18.57;47.90;97156.20;108908;1270;23249;-81
2023/07/09 03:31:43;;;;;;;6.60;3.30;;;;;;;18.59;47.95;97152.08;108956;1274;22542;-81
2023/07/09 03:34:15;;;;;;;4.80;3.50;;;;;;;18.60;47.95;97153.38;108943;1267;22524;-80
2023/07/09 03:36:46;;;;;;;5.70;3.50;;;;;;;18.60;48.02;97154.61;108957;1274;24623;-81
2023/07/09 03:39:17;;;;;;;3.50;2.80;;;;;;;18.61;48.09;97157.16;108989;1269;22513;-81
2023/07/09 03:41:48;;;;;;;4.30;3.20;;;;;;;18.61;48.14;97155.24;108936;1264;22536;-81
2023/07/09 03:44:19;;;;;;;5.50;3.30;;;;;;;18.61;48.05;97152.55;108931;1251;22738;-80
2023/07/09 03:46:52;;;;;;;7.80;3.50;;;;;;;18.60;48.10;97154.36;108919;1267;22529;-81
2023/07/09 03:49:23;;;;;;;5.10;3.70;;;;;;;18.59;48.07;97148.27;108912;1274;24276;-81
2023/07/09 03:51:54;;;;;;;3.60;3.00;;;;;;;18.59;48.18;97150.40;108956;1271;22532;-81
2023/07/09 03:54:28;;;;;;;3.60;3.00;;;;;;;18.60;48.26;97150.51;108963;1272;24394;-81
2023/07/09 03:56:59;;;;;;;5.10;3.20;;;;;;;18.60;48.38;97154.73;108940;1272;25517;-81
2023/07/09 03:59:30;;;;;;;3.90;3.00;;;;;;;18.61;48.38;97150.44;108949;1274;22519;-83
2023/07/09 05:06:46;;;;;;;;;;;;;;;;;;;;;
2023/07/09 05:32:05;;;;;;;5.10;3.10;;;;;;;25.03;44.67;97165.88;107581;1283;22602;-93
2023/07/09 05:34:38;;;;;;;3.70;3.00;;;;;;;25.92;43.58;97159.17;108484;1278;23422;-89
2023/07/09 05:37:12;;;;;;;4.70;3.10;;;;;;;26.38;42.25;97159.64;108553;1277;22567;-88
2023/07/09 05:39:42;;;;;;;4.90;3.20;;;;;;;26.69;41.51;97158.27;108597;1279;22592;-89
2023/07/09 05:42:10;;;;;;;;;;;;;;;26.91;40.68;97163.97;108756;1279;22540;-90
2023/07/09 05:44:40;;;;;;;3.50;3.10;;;;;;;27.05;40.28;97168.73;108746;1271;22568;-89
2023/07/09 05:47:09;;;;;;;3.70;3.00;;;;;;;27.16;39.77;97159.98;108724;1272;22531;-90
2023/07/09 05:49:49;;;;;;;;;;;;;;;27.29;39.42;97165.89;108706;1278;26555;-86
2023/07/09 05:52:29;;;;;;;3.90;3.10;;;;;;;27.41;39.08;97162.34;108840;1277;25567;-86
2023/07/09 05:55:06;;;;;;;2.70;2.50;;;;;;;27.41;38.64;97166.31;110115;1278;22763;-88
2023/07/09 06:00:19;;;;;;;5.30;3.10;;;;;;;27.65;38.34;97168.19;108747;1278;22531;-81
2023/07/09 06:02:47;;;;;;;;;;;;;;;27.77;38.17;97167.52;109012;1273;22530;-84
2023/07/09 06:05:17;;;;;;;3.20;2.80;;;;;;;27.81;38.01;97167.40;108991;1276;22530;-83
2023/07/09 06:07:47;;;;;;;3.30;3.00;;;;;;;27.85;37.91;97169.21;108970;1270;22708;-83
2023/07/09 06:10:21;;;;;;;4.30;3.10;;;;;;;27.86;37.83;97173.27;108938;1258;22633;-84
2023/07/09 06:12:52;;;;;;;5.60;3.10;;;;;;;27.82;37.67;97174.02;108919;1276;22534;-84
2023/07/09 06:15:23;;;;;;;4.30;3.10;;;;;;;27.86;37.66;97175.61;108916;1276;23487;-83
2023/07/09 06:18:04;;;;;;;3.40;2.80;;;;;;;27.91;37.60;97169.81;108899;1276;34694;-83
2023/07/09 06:20:39;;;;;;;4.00;2.90;;;;;;;27.96;37.70;97175.14;108752;1277;22719;-84
2023/07/09 06:23:23;;;;;;;3.10;2.80;;;;;;;28.10;37.78;97176.79;108754;1271;22574;-82
2023/07/09 06:26:00;;;;;;;4.10;3.10;;;;;;;28.03;37.50;97176.20;108746;1274;22528;-82
2023/07/09 06:28:38;;;;;;;3.60;3.10;;;;;;;27.88;37.85;97176.02;108682;1274;113319;-82
2023/07/09 06:31:10;;;;;;;4.20;2.90;;;;;;;27.89;37.75;97179.85;108731;1274;25303;-82
2023/07/09 06:33:39;;;;;;;4.00;3.10;;;;;;;27.84;37.67;97180.10;108760;1273;25129;-82
2023/07/09 06:36:09;;;;;;;4.00;3.10;;;;;;;27.82;37.38;97177.76;108794;1277;22513;-82
2023/07/09 06:38:42;;;;;;;6.20;3.40;;;;;;;27.80;37.40;97178.98;108717;1268;67774;-81
2023/07/09 06:41:16;;;;;;;3.40;3.00;;;;;;;27.76;37.54;97180.76;108833;1270;24222;-82
2023/07/09 06:43:46;;;;;;;4.70;2.90;;;;;;;27.82;37.69;97175.19;108775;1277;25245;-81
2023/07/09 06:46:16;;;;;;;5.20;2.90;;;;;;;27.92;37.75;97173.63;108776;1277;22541;-82
2023/07/09 06:48:47;;;;;;;3.70;2.80;;;;;;;28.00;37.91;97176.65;108769;1269;52815;-82
2023/07/09 06:51:16;;;;;;;3.80;2.50;;;;;;;28.19;37.83;97179.35;108926;1270;22570;-82
2023/07/09 06:53:50;;;;;;;3.70;2.60;;;;;;;28.32;37.49;97177.92;108961;1274;25512;-82
2023/07/09 06:56:22;;;;;;;4.30;2.90;;;;;;;28.36;37.52;97172.64;108901;1276;22538;-82
2023/07/09 06:58:56;;;;;;;3.40;2.80;;;;;;;28.43;37.49;97169.71;108766;1274;71785;-82
2023/07/09 07:01:27;;;;;;;4.80;2.50;;;;;;;28.50;37.59;97171.86;108784;1277;22531;-81
2023/07/09 07:03:56;;;;;;;3.30;2.60;;;;;;;28.57;37.28;97168.93;108740;1270;26468;-83
2023/07/09 07:06:25;;;;;;;5.00;2.80;;;;;;;28.60;37.02;97166.54;108805;1277;22497;-81
2023/07/09 07:08:54;;;;;;;6.00;3.30;;;;;;;28.59;36.82;97167.63;108959;1273;34827;-82
2023/07/09 07:11:23;;;;;;;2.60;2.10;;;;;;;28.62;36.77;97167.79;108961;1274;23353;-83
2023/07/09 07:13:52;;;;;;;3.60;2.70;;;;;;;28.70;36.63;97168.20;108903;1276;22547;-82
2023/07/09 07:16:21;;;;;;;4.50;3.00;;;;;;;28.74;36.35;97170.89;108988;1274;22543;-83
2023/07/09 07:18:50;;;;;;;;;;;;;;;28.77;36.39;97170.20;108981;1272;35573;-83
2023/07/09 07:21:19;;;;;;;2.60;2.40;;;;;;;28.79;36.36;97169.42;108964;1276;22561;-83
2023/07/09 07:23:50;;;;;;;4.30;2.70;;;;;;;28.84;36.07;97166.46;109006;1263;24721;-82
2023/07/09 07:26:20;;;;;;;4.00;2.70;;;;;;;28.87;35.99;97168.02;108923;1276;23553;-82
2023/07/09 07:28:50;;;;;;;2.70;2.20;;;;;;;28.88;36.04;97168.48;108915;1276;52604;-82
2023/07/09 07:31:19;;;;;;;4.70;3.10;;;;;;;28.92;35.86;97166.07;108986;1276;22595;-81
2023/07/09 07:33:47;;;;;;;3.00;2.60;;;;;;;28.99;35.93;97168.52;108966;1276;22534;-81
2023/07/09 07:36:16;;;;;;;3.70;2.90;;;;;;;29.07;35.75;97173.45;108981;1276;23075;-81
2023/07/09 07:38:44;;;;;;;;;;;;;;;29.12;35.65;97165.11;108943;1274;23496;-83
2023/07/09 07:41:13;;;;;;;4.00;2.70;;;;;;;29.18;35.67;97166.86;109012;1273;24280;-82
2023/07/09 07:43:42;;;;;;;2.70;2.40;;;;;;;29.25;35.51;97163.42;109035;1276;25494;-82
2023/07/09 07:46:10;;;;;;;3.10;2.50;;;;;;;29.28;35.12;97166.10;108985;1276;22637;-81
2023/07/09 07:48:40;;;;;;;3.00;2.40;;;;;;;29.33;35.51;97163.52;108998;1274;40992;-82
2023/07/09 07:51:08;;;;;;;3.40;2.40;;;;;;;29.45;35.37;97161.92;108993;1276;22583;-82
2023/07/09 07:53:37;;;;;;;5.00;2.70;;;;;;;29.52;35.10;97163.27;108981;1269;22777;-83
2023/07/09 07:56:07;;;;;;;5.10;3.50;;;;;;;29.56;34.63;97165.39;109033;1272;22540;-82
2023/07/09 07:58:36;;;;;;;3.20;2.40;;;;;;;29.63;34.59;97165.31;109013;1276;29985;-82
2023/07/09 08:01:04;;;;;;;2.80;2.50;;;;;;;29.60;34.11;97164.69;109069;1276;22532;-81
2023/07/09 08:03:33;;;;;;;2.90;2.40;;;;;;;29.62;33.94;97156.33;109055;1276;22018;-83
2023/07/09 08:06:02;;;;;;;3.90;2.70;;;;;;;29.53;33.39;97155.93;109090;1273;22507;-81
2023/07/09 08:08:31;;;;;;;4.00;2.20;;;;;;;29.41;32.92;97158.15;109036;1272;43000;-84
2023/07/09 08:11:04;;;;;;;4.30;2.50;;;;;;;29.43;33.46;97162.77;109145;1273;22528;-83
2023/07/09 08:13:34;;;;;;;3.90;2.40;;;;;;;29.40;33.22;97159.23;109160;1276;22529;-83
2023/07/09 08:16:03;;;;;;;4.70;2.40;;;;;;;29.30;32.48;97162.89;109002;1270;25495;-87
2023/07/09 08:18:32;;;;;;;2.40;2.00;;;;;;;29.17;32.30;97159.29;109015;1269;51466;-83
2023/07/09 08:21:04;;;;;;;4.90;2.80;;;;;;;29.10;32.02;97158.63;109046;1272;22857;-83
2023/07/09 08:23:34;;;;;;;2.90;2.20;;;;;;;29.10;32.44;97159.88;109201;1269;22736;-83
2023/07/09 08:26:03;;;;;;;;;;;;;;;29.17;32.44;97157.96;109060;1269;22583;-82
2023/07/09 08:28:32;;;;;;;2.80;2.30;;;;;;;29.26;32.20;97155.87;109025;1273;41566;-83
2023/07/09 08:31:02;;;;;;;4.60;2.20;;;;;;;29.29;32.12;97158.54;108971;1271;22550;-82
2023/07/09 08:33:29;;;;;;;;;;;;;;;29.37;32.50;97157.69;109091;1276;22516;-83
2023/07/09 08:36:04;;;;;;;4.30;2.40;;;;;;;29.58;32.79;97154.69;109093;1268;22528;-90
2023/07/09 08:38:38;;;;;;;2.60;2.30;;;;;;;29.65;32.77;97150.71;108925;1269;66610;-90
2023/07/09 08:41:26;;;;;;;3.00;2.40;;;;;;;29.60;32.42;97153.36;109003;1276;22520;-91
2023/07/09 08:47:37;;;;;;;3.70;2.50;;;;;;;29.18;32.06;97152.41;108281;1275;22565;-91
2023/07/09 08:50:35;;;;;;;2.90;2.40;;;;;;;29.03;32.95;97157.69;108253;1282;22563;-91
2023/07/09 08:53:15;;;;;;;3.90;2.30;;;;;;;28.96;32.49;97154.08;108372;1282;22534;-91
2023/07/09 08:59:37;;;;;;;2.70;2.10;;;;;;;28.76;32.79;97155.61;108278;1282;82286;-92
2023/07/09 09:05:37;;;;;;;;;;;;;;;28.25;33.01;97153.71;108918;1276;24256;-91
2023/07/09 09:08:52;;;;;;;5.60;2.70;;;;;;;28.07;32.91;97158.79;108768;1276;82535;-90
2023/07/09 09:11:58;;;;;;;6.20;3.00;;;;;;;27.91;32.48;97160.23;108982;1269;22880;-91
2023/07/09 09:14:44;;;;;;;4.10;2.70;;;;;;;27.81;32.76;97156.50;108990;1276;22658;-89
2023/07/09 09:17:39;;;;;;;2.40;2.10;;;;;;;27.93;33.12;97155.81;108987;1276;22557;-90
2023/07/09 09:20:28;;;;;;;4.70;4.30;;;;;;;27.97;32.94;97157.08;108951;1276;130184;-90
2023/07/09 09:23:33;;;;;;;4.40;3.10;;;;;;;27.96;32.77;97160.02;108900;1276;26737;-90
2023/07/09 09:26:49;;;;;;;2.80;2.40;;;;;;;27.98;32.92;97163.70;108932;1276;22560;-89
2023/07/09 09:29:37;;;;;;;8.60;2.70;;;;;;;27.92;32.54;97159.94;107273;1275;2612791;-90
2023/07/09 09:32:46;;;;;;;5.90;2.90;;;;;;;27.98;32.80;97160.98;109028;1272;22576;-90
2023/07/09 09:35:51;;;;;;;;;;;;;;;;;;;;;
2023/07/09 09:38:40;;;;;;;3.90;2.50;;;;;;;27.98;33.32;97156.70;107111;1270;2412387;-90
2023/07/09 09:41:25;;;;;;;3.10;2.80;;;;;;;28.11;32.91;97158.11;109040;1269;22537;-92
2023/07/09 09:44:00;;;;;;;3.10;2.40;;;;;;;28.16;32.68;97164.53;109006;1272;23845;-92
2023/07/09 09:46:38;;;;;;;3.70;2.60;;;;;;;28.20;32.75;97167.52;109020;1276;22547;-91
2023/07/09 09:49:13;;;;;;;4.30;2.50;;;;;;;28.14;32.79;97163.97;108882;1273;52847;-89
2023/07/09 09:51:48;;;;;;;4.50;3.00;;;;;;;28.11;32.41;97166.84;109027;1273;22543;-90
2023/07/09 09:54:30;;;;;;;5.70;3.30;;;;;;;28.12;32.76;97161.46;108954;1274;22599;-92
2023/07/09 09:57:04;;;;;;;3.50;2.80;;;;;;;28.21;32.96;97163.09;108944;1270;22545;-91
2023/07/09 09:59:38;;;;;;;3.20;2.50;;;;;;;28.27;33.04;97163.92;108870;1273;54115;-91
2023/07/09 10:05:15;;;;;;;3.70;2.90;;;;;;;28.42;34.00;97164.03;108943;1272;22533;-91
2023/07/09 10:08:15;;;;;;;3.20;2.70;;;;;;;28.37;33.33;97160.71;109098;1276;23383;-91
2023/07/09 10:13:56;;;;;;;4.30;2.80;;;;;;;27.96;32.32;97165.48;108889;1274;22569;-89
2023/07/09 10:17:00;;;;;;;;;;;;;;;;;;;;;
2023/07/09 10:19:56;;;;;;;5.00;3.20;;;;;;;27.77;32.48;97151.80;107436;1273;2014341;-90
2023/07/09 10:22:54;;;;;;;5.80;2.80;;;;;;;27.61;32.09;97155.86;109006;1276;22554;-89
2023/07/09 10:25:38;;;;;;;4.10;3.20;;;;;;;27.59;32.49;97150.67;108776;1276;22865;-90
2023/07/09 10:28:48;;;;;;;5.60;3.20;;;;;;;27.56;32.14;97152.44;108879;1276;22535;-89
2023/07/09 10:31:33;;;;;;;5.00;3.10;;;;;;;27.54;32.02;97146.74;108894;1276;22557;-90
2023/07/09 10:34:20;;;;;;;4.00;3.40;;;;;;;27.53;31.99;97153.04;108846;1275;22554;-92
2023/07/09 10:37:09;;;;;;;3.60;2.80;;;;;;;27.65;32.81;97147.88;108897;1274;23166;-89
2023/07/09 10:39:50;;;;;;;3.20;2.80;;;;;;;27.75;32.65;97142.91;108894;1273;109909;-91
2023/07/09 10:42:28;;;;;;;3.80;3.10;;;;;;;27.74;32.66;97146.88;108959;1276;24160;-91
2023/07/09 10:45:02;;;;;;;3.40;2.80;;;;;;;27.57;32.07;97147.09;108858;1273;25273;-91
2023/07/09 10:47:38;;;;;;;3.40;2.90;;;;;;;27.50;32.16;97147.73;108846;1270;24472;-91
2023/07/09 10:50:29;;;;;;;3.50;3.10;;;;;;;27.55;32.44;97148.54;108753;1277;123024;-90
2023/07/09 10:53:07;;;;;;;4.00;3.30;;;;;;;27.64;32.80;97141.02;108939;1270;23068;-90
2023/07/09 10:55:59;;;;;;;4.30;3.40;;;;;;;27.79;33.24;97143.41;108933;1274;24011;-88
2023/07/09 10:58:45;;;;;;;4.10;3.10;;;;;;;27.71;32.57;97142.55;109120;1277;70148;-89
2023/07/09 11:01:32;;;;;;;4.60;3.20;;;;;;;27.58;32.64;97144.52;108982;1270;22818;-86
2023/07/09 11:04:26;;;;;;;4.10;3.00;;;;;;;27.63;32.35;97135.16;109023;1274;22588;-88
2023/07/09 11:07:02;;;;;;;5.90;2.90;;;;;;;27.72;32.89;97129.95;109552;1268;22564;-89
2023/07/09 11:09:40;;;;;;;4.20;3.10;;;;;;;27.84;33.48;97129.73;108930;1267;59435;-91
2023/07/09 11:12:18;;;;;;;3.60;2.90;;;;;;;27.95;33.22;97127.25;109047;1270;22529;-89
2023/07/09 11:14:53;;;;;;;4.30;3.40;;;;;;;27.93;33.30;97128.95;108953;1276;22560;-90
2023/07/09 11:17:33;;;;;;;5.50;3.20;;;;;;;27.86;32.73;97118.23;109029;1273;22596;-91
2023/07/09 11:20:16;;;;;;;5.20;3.10;;;;;;;27.74;32.97;97125.30;109012;1275;47541;-88
2023/07/09 11:22:54;;;;;;;3.30;3.00;;;;;;;27.79;33.23;97130.09;109102;1270;22555;-89
2023/07/09 11:25:32;;;;;;;4.30;2.90;;;;;;;27.77;32.81;97127.75;109138;1273;22534;-88
2023/07/09 11:28:07;;;;;;;4.60;3.20;;;;;;;27.78;32.98;97129.23;108826;1270;22561;-91
2023/07/09 11:30:48;;;;;;;4.90;3.20;;;;;;;27.79;32.48;97125.19;108851;1270;45753;-90
2023/07/09 11:33:22;;;;;;;4.30;3.10;;;;;;;27.71;32.69;97129.16;108954;1270;22552;-86
2023/07/09 11:35:53;;;;;;;5.00;3.10;;;;;;;27.70;33.05;97132.81;108882;1276;26535;-87
2023/07/09 11:38:24;;;;;;;5.00;3.30;;;;;;;27.75;33.57;97132.32;108879;1276;22542;-86
2023/07/09 11:40:54;;;;;;;3.60;2.90;;;;;;;27.90;34.26;97132.50;108870;1277;41843;-86
2023/07/09 11:43:33;;;;;;;5.40;3.40;;;;;;;28.02;34.14;97132.05;108814;1277;22695;-86
2023/07/09 11:46:13;;;;;;;5.10;3.50;;;;;;;28.08;33.72;97128.66;108866;1267;22603;-86
2023/07/09 11:48:45;;;;;;;3.40;3.00;;;;;;;28.11;33.38;97126.57;108830;1276;22558;-86
2023/07/09 11:51:23;;;;;;;4.30;3.10;;;;;;;28.13;33.59;97123.84;108876;1277;23048;-86
2023/07/09 11:53:55;;;;;;;4.80;3.00;;;;;;;28.16;33.63;97124.03;108820;1260;24274;-85
2023/07/09 11:56:25;;;;;;;3.80;3.10;;;;;;;28.20;33.45;97123.36;108862;1277;22529;-87
2023/07/09 11:58:58;;;;;;;3.50;3.10;;;;;;;28.21;34.05;97123.98;108797;1271;57079;-88
2023/07/09 12:01:32;;;;;;;3.80;3.10;;;;;;;28.12;33.13;97133.73;108932;1270;22593;-88
2023/07/09 12:04:01;;;;;;;4.70;3.00;;;;;;;28.00;33.06;97132.09;108915;1270;22549;-86
2023/07/09 12:06:32;;;;;;;4.40;3.10;;;;;;;28.00;33.44;97122.68;108905;1277;22540;-86
2023/07/09 12:09:04;;;;;;;3.50;3.10;;;;;;;28.07;33.32;97114.40;108886;1276;45298;-86
2023/07/09 12:11:34;;;;;;;5.30;3.40;;;;;;;28.06;32.91;97114.16;108932;1277;25422;-85
2023/07/09 12:14:17;;;;;;;3.80;3.10;;;;;;;28.07;33.26;97108.64;108921;1277;23267;-86
2023/07/09 12:16:49;;;;;;;3.70;3.10;;;;;;;28.12;33.19;97104.45;108923;1274;22540;-86
2023/07/09 12:19:24;;;;;;;5.20;3.10;;;;;;;28.08;32.80;97108.96;108823;1270;23284;-85
2023/07/09 12:21:58;;;;;;;3.70;3.00;;;;;;;28.09;33.13;97105.68;108884;1276;22533;-88
2023/07/09 12:24:31;;;;;;;3.30;3.00;;;;;;;28.09;32.44;97103.58;108941;1270;22531;-83
2023/07/09 12:27:02;;;;;;;5.10;3.10;;;;;;;28.01;31.87;97096.05;108892;1271;22641;-89
2023/07/09 12:29:36;;;;;;;4.90;3.30;;;;;;;27.97;32.13;97099.85;108779;1270;46639;-87
2023/07/09 12:32:13;;;;;;;3.80;3.10;;;;;;;28.05;31.89;97096.87;108862;1270;22558;-87
2023/07/09 12:34:50;;;;;;;4.60;3.10;;;;;;;28.07;32.03;97096.25;109002;1270;22587;-88
2023/07/09 12:37:28;;;;;;;4.10;3.20;;;;;;;28.03;31.59;97098.17;108808;1277;22590;-88
2023/07/09 12:40:01;;;;;;;5.70;3.40;;;;;;;27.98;31.71;97094.48;108694;1276;184685;-88
2023/07/09 12:42:37;;;;;;;4.20;3.20;;;;;;;27.95;31.60;97097.11;108818;1277;22549;-88
2023/07/09 12:45:16;;;;;;;5.30;3.90;;;;;;;27.98;31.93;97097.43;108825;1277;23405;-88
2023/07/09 12:47:49;;;;;;;5.30;3.40;;;;;;;28.01;31.45;97097.54;108827;1276;22584;-87
2023/07/09 12:50:29;;;;;;;4.40;3.10;;;;;;;28.06;31.93;97087.45;107450;1270;1829554;-86
2023/07/09 12:53:17;;;;;;;6.50;3.50;;;;;;;28.11;31.92;97084.98;108929;1273;22549;-87
2023/07/09 12:55:50;;;;;;;3.90;3.40;;;;;;;28.17;32.54;97086.10;108804;1277;22664;-87
2023/07/09 12:58:24;;;;;;;4.70;3.70;;;;;;;28.22;32.24;97082.70;108835;1277;22540;-86
2023/07/09 13:00:55;;;;;;;4.90;3.40;;;;;;;28.22;32.07;97085.42;108807;1277;38348;-86
2023/07/09 13:03:29;;;;;;;4.20;3.30;;;;;;;28.23;32.41;97078.96;108770;1274;22625;-87
2023/07/09 13:06:00;;;;;;;5.10;3.40;;;;;;;28.19;32.00;97077.86;108839;1276;22541;-86
2023/07/09 13:08:31;;;;;;;4.00;3.60;;;;;;;28.16;32.25;97076.30;108891;1276;25660;-86
2023/07/09 13:11:01;;;;;;;5.60;4.00;;;;;;;28.17;32.45;97073.73;109036;1273;22552;-85
2023/07/09 13:13:31;;;;;;;4.30;3.50;;;;;;;28.22;33.04;97074.20;109002;1269;22569;-85
2023/07/09 13:16:02;;;;;;;6.40;3.90;;;;;;;28.27;33.20;97066.45;108977;1276;22580;-85
2023/07/09 13:18:35;;;;;;;4.70;3.50;;;;;;;28.32;32.91;97074.14;108992;1275;25374;-87
2023/07/09 13:21:18;;;;;;;4.80;4.00;;;;;;;28.36;32.81;97069.39;108992;1257;24359;-86
2023/07/09 13:23:48;;;;;;;4.20;3.30;;;;;;;28.34;32.28;97070.56;108889;1267;26147;-85
2023/07/09 13:26:17;;;;;;;4.00;3.30;;;;;;;28.29;32.61;97071.00;108927;1275;23377;-85
2023/07/09 13:28:49;;;;;;;4.20;3.80;;;;;;;28.31;32.95;97071.56;108868;1276;28422;-85
2023/07/09 13:31:22;;;;;;;4.20;3.60;;;;;;;28.34;33.24;97072.27;108932;1273;22705;-85
2023/07/09 13:33:53;;;;;;;;;;;;;;;28.36;33.39;97071.58;108888;1276;22596;-85
2023/07/09 13:36:22;;;;;;;5.90;3.60;;;;;;;28.32;32.71;97069.85;108963;1271;22554;-86
2023/07/09 13:38:51;;;;;;;4.90;3.70;;;;;;;28.26;32.27;97069.48;108874;1276;90696;-86
2023/07/09 13:41:22;;;;;;;;;;;;;;;28.16;31.96;97063.89;108960;1276;22509;-87
2023/07/09 13:43:56;;;;;;;5.00;3.60;;;;;;;28.08;31.64;97066.03;108940;1276;22566;-86
2023/07/09 13:46:27;;;;;;;4.40;3.60;;;;;;;28.03;31.89;97068.82;108913;1276;22542;-88
2023/07/09 13:49:03;;;;;;;4.60;3.90;;;;;;;28.03;31.85;97068.44;108892;1270;74613;-86
2023/07/09 13:51:39;;;;;;;6.00;3.70;;;;;;;28.08;32.49;97064.17;108998;1276;24468;-87
2023/07/09 13:54:21;;;;;;;4.50;3.70;;;;;;;28.14;32.32;97065.98;108985;1276;22525;-87